グアム の空港の天気 - METARとTAF

グアム国際空港 ( PGUM / GUM ) - グアム ハガニア
飛行場実況気象(Metar)
観測時間08/05 17:54 ChST (08/05 07:54 UTC)
風向・風速東 6m/s
視程10km以上
天気現象
少しの雲 雲底高度 520m
全天の4割程度の雲 雲底高度 700m
気温30℃
湿度75%
気圧1009.3hPa
METARPGUM 050754Z 08011KT 10SM FEW017 SCT023 30/25 A2983 RMK AO2 SLP093 T03000250
過去の天気等 Google飛行場航空写真 Wunderground天気予報

過去48時間のMETAR

飛行場予報(TAF)
発表時間: 8/05 15:26 ChST (8/05 05:26 UTC)
予報対象時間: 5日16時 ChST ~ 6日22時 ChST
風向・風速東 5m/s
視程10km以上
天気現象周辺でしゅう雨
全天の4割程度の雲 雲底高度 610m
PGUM 050526Z 0506/0612 09010KT P6SM VCSH SCT020